createdAt,value
2018-12-01T00:00:43.616Z,100917.05
2018-12-01T00:03:12.766Z,100918.16
2018-12-01T00:05:41.915Z,100913.25
2018-12-01T00:08:11.066Z,100905.39
2018-12-01T00:10:40.134Z,100901.31
2018-12-01T00:13:09.247Z,100903.50
2018-12-01T00:15:38.304Z,100898.06
2018-12-01T00:18:07.897Z,100895.08
2018-12-01T00:20:38.272Z,100889.91
2018-12-01T00:23:08.520Z,100887.75
2018-12-01T00:25:37.723Z,100880.70
2018-12-01T00:28:06.912Z,100880.17
2018-12-01T00:30:36.070Z,100877.98
2018-12-01T00:33:05.270Z,100862.24
2018-12-01T00:35:34.783Z,100853.53
2018-12-01T00:38:03.971Z,100843.78
2018-12-01T00:40:33.186Z,100837.52
2018-12-01T00:43:02.490Z,100824.47
2018-12-01T00:45:31.805Z,100823.67
2018-12-01T00:48:00.890Z,100813.89
2018-12-01T00:50:30.659Z,100809.02
2018-12-01T00:52:59.692Z,100805.22
2018-12-01T00:55:28.844Z,100795.98
2018-12-01T00:57:58.018Z,100797.06
2018-12-01T01:00:27.954Z,100803.32
2018-12-01T01:02:59.207Z,100790.82
2018-12-01T01:05:30.084Z,100791.09
2018-12-01T01:08:01.311Z,100786.20
2018-12-01T01:10:32.555Z,100783.22
2018-12-01T01:13:01.628Z,100781.86
2018-12-01T01:15:30.740Z,100779.14
2018-12-01T01:17:59.866Z,100788.38
2018-12-01T01:20:30.251Z,100781.04
2018-12-01T01:22:59.451Z,100776.98
2018-12-01T01:25:29.395Z,100763.67
2018-12-01T01:27:58.504Z,100757.67
2018-12-01T01:30:27.862Z,100761.75
2018-12-01T01:33:07.746Z,100759.33
2018-12-01T01:35:36.880Z,100766.37
2018-12-01T01:38:06.120Z,100751.75
2018-12-01T01:40:35.197Z,100751.75
2018-12-01T01:43:04.316Z,100749.03
2018-12-01T01:45:33.487Z,100739.78
2018-12-01T01:48:02.612Z,100731.64
2018-12-01T01:50:32.317Z,100728.09
2018-12-01T01:53:01.490Z,100715.33
2018-12-01T01:55:30.669Z,100704.47
2018-12-01T01:57:59.809Z,100693.88
2018-12-01T02:00:29.026Z,100700.12
2018-12-01T02:02:58.089Z,100691.16
2018-12-01T02:05:27.283Z,100684.91
2018-12-01T02:07:56.398Z,100689.25
2018-12-01T02:10:25.571Z,100690.34
2018-12-01T02:12:54.867Z,100689.78
2018-12-01T02:15:24.092Z,100677.28
2018-12-01T02:17:53.263Z,100672.67
2018-12-01T02:20:22.381Z,100666.41
2018-12-01T02:22:51.806Z,100664.26
2018-12-01T02:25:20.914Z,100660.19
2018-12-01T02:27:50.033Z,100652.02
2018-12-01T02:30:20.885Z,100645.22
2018-12-01T02:32:50.304Z,100632.73
2018-12-01T02:35:26.598Z,100622.14
2018-12-01T02:37:55.776Z,100615.06
2018-12-01T02:40:24.858Z,100604.47
2018-12-01T02:42:54.020Z,100591.98
2018-12-01T02:45:33.972Z,100580.58
2018-12-01T02:48:03.200Z,100572.95
2018-12-01T02:50:32.403Z,100561.83
2018-12-01T02:53:02.831Z,100558.54
2018-12-01T02:55:31.863Z,100566.14
2018-12-01T02:58:01.039Z,100553.38
2018-12-01T03:00:30.116Z,100554.22
2018-12-01T03:02:59.310Z,100545.78
2018-12-01T03:05:29.102Z,100536.56
2018-12-01T03:07:58.242Z,100537.09
2018-12-01T03:10:27.451Z,100528.16
2018-12-01T03:12:56.715Z,100516.47
2018-12-01T03:15:25.816Z,100524.34
2018-12-01T03:17:54.986Z,100522.16
2018-12-01T03:20:24.031Z,100506.14
2018-12-01T03:22:53.181Z,100505.32
2018-12-01T03:25:23.240Z,100490.91
2018-12-01T03:27:53.261Z,100482.23
2018-12-01T03:30:23.499Z,100480.62
2018-12-01T03:32:53.524Z,100459.68
2018-12-01T03:35:23.512Z,100452.89
2018-12-01T03:37:52.844Z,100439.05
2018-12-01T03:40:23.335Z,100433.91
2018-12-01T03:42:53.668Z,100430.37
2018-12-01T03:45:23.691Z,100421.42
2018-12-01T03:47:52.965Z,100415.45
2018-12-01T03:50:24.235Z,100414.09
2018-12-01T03:52:57.268Z,100405.66
2018-12-01T03:55:33.403Z,100389.11
2018-12-01T03:58:03.407Z,100382.61
2018-12-01T04:00:34.405Z,100381.78
2018-12-01T04:03:10.478Z,100367.95
2018-12-01T04:05:40.426Z,100355.19
2018-12-01T04:08:09.485Z,100354.91
2018-12-01T04:10:38.591Z,100338.08
2018-12-01T04:13:07.801Z,100330.50
2018-12-01T04:15:36.951Z,100327.53
2018-12-01T04:18:06.224Z,100319.64
2018-12-01T04:20:35.362Z,100310.95
2018-12-01T04:23:04.673Z,100301.98
2018-12-01T04:25:33.787Z,100299.02
2018-12-01T04:28:02.986Z,100289.52
2018-12-01T04:30:32.063Z,100274.30
2018-12-01T04:33:01.171Z,100267.52
2018-12-01T04:35:31.212Z,100251.77
2018-12-01T04:38:01.089Z,100240.36
2018-12-01T04:40:30.370Z,100236.29
2018-12-01T04:42:59.518Z,100223.00
2018-12-01T04:45:28.655Z,100212.39
2018-12-01T04:47:57.975Z,100200.42
2018-12-01T04:50:27.500Z,100198.81
2018-12-01T04:52:56.688Z,100194.99
2018-12-01T04:55:25.878Z,100201.53
2018-12-01T04:57:54.924Z,100197.70
2018-12-01T05:00:23.986Z,100195.52
2018-12-01T05:02:53.063Z,100191.45
2018-12-01T05:05:22.707Z,100183.30
2018-12-01T05:07:51.924Z,100176.23
2018-12-01T05:10:22.835Z,100171.38
2018-12-01T05:12:52.079Z,100167.30
2018-12-01T05:15:21.261Z,100159.16
2018-12-01T05:17:50.372Z,100153.72
2018-12-01T05:20:26.458Z,100151.80
2018-12-01T05:22:55.560Z,100150.72
2018-12-01T05:25:25.574Z,100156.40
2018-12-01T05:27:54.696Z,100156.14
2018-12-01T05:30:23.891Z,100149.85
2018-12-01T05:32:53.014Z,100146.59
2018-12-01T05:35:23.206Z,100124.58
2018-12-01T05:37:52.392Z,100129.18
2018-12-01T05:40:21.790Z,100115.03
2018-12-01T05:42:50.808Z,100115.31
2018-12-01T05:45:21.615Z,100107.70
2018-12-01T05:47:50.953Z,100100.33
2018-12-01T05:50:28.300Z,100094.59
2018-12-01T05:52:57.934Z,100087.52
2018-12-01T05:55:27.620Z,100083.97
2018-12-01T05:57:57.153Z,100076.34
2018-12-01T06:00:26.398Z,100072.28
2018-12-01T06:02:55.401Z,100073.12
2018-12-01T06:05:25.435Z,100059.78
2018-12-01T06:07:54.560Z,100057.59
2018-12-01T06:10:23.964Z,100053.77
2018-12-01T06:12:54.058Z,100050.22
2018-12-01T06:15:23.395Z,100051.57
2018-12-01T06:17:52.452Z,100036.34
2018-12-01T06:20:22.678Z,100032.54
2018-12-01T06:22:51.859Z,100030.34
2018-12-01T06:25:22.331Z,100022.15
2018-12-01T06:27:51.396Z,100026.50
2018-12-01T06:30:21.030Z,100027.55
2018-12-01T06:32:51.297Z,100015.03
2018-12-01T06:35:20.400Z,100015.80
2018-12-01T06:37:49.581Z,100010.89
2018-12-01T06:40:19.457Z,100003.50
2018-12-01T06:42:48.681Z,99992.86
2018-12-01T06:45:22.161Z,99982.78
2018-12-01T06:47:51.234Z,99969.14
2018-12-01T06:50:21.831Z,99966.12
2018-12-01T06:52:51.521Z,99970.19
2018-12-01T06:55:21.140Z,99968.28
2018-12-01T06:57:51.164Z,99959.02
2018-12-01T07:00:21.469Z,99953.58
2018-12-01T07:02:50.847Z,99945.70
2018-12-01T07:05:20.189Z,99951.38
2018-12-01T07:07:49.237Z,99941.57
2018-12-01T07:10:19.518Z,99940.73
2018-12-01T07:12:53.891Z,99939.61
2018-12-01T07:15:25.746Z,99937.42
2018-12-01T07:17:54.842Z,99932.80
2018-12-01T07:20:24.004Z,99923.56
2018-12-01T07:22:53.098Z,99922.44
2018-12-01T07:25:22.227Z,99925.41
2018-12-01T07:27:51.323Z,99925.67
2018-12-01T07:30:20.387Z,99922.66
2018-12-01T07:32:49.414Z,99928.09
2018-12-01T07:35:18.967Z,99925.36
2018-12-01T07:37:48.083Z,99921.52
2018-12-01T07:40:18.366Z,99926.93
2018-12-01T07:42:47.421Z,99924.45
2018-12-01T07:45:16.941Z,99931.23
2018-12-01T07:47:46.001Z,99926.80
2018-12-01T07:50:17.797Z,99926.77
2018-12-01T07:52:53.958Z,99921.82
2018-12-01T07:55:24.626Z,99932.04
2018-12-01T07:57:55.279Z,99933.67
2018-12-01T08:00:24.323Z,99926.33
2018-12-01T08:02:53.396Z,99923.03
2018-12-01T08:05:22.578Z,99930.35
2018-12-01T08:07:51.728Z,99932.50
2018-12-01T08:10:24.360Z,99922.11
2018-12-01T08:12:57.150Z,99921.53
2018-12-01T08:15:28.123Z,99926.38
2018-12-01T08:17:57.303Z,99939.13
2018-12-01T08:20:27.197Z,99941.03
2018-12-01T08:22:56.299Z,99931.78
2018-12-01T08:25:25.394Z,99930.13
2018-12-01T08:27:56.849Z,99928.46
2018-12-01T08:30:31.165Z,99928.38
2018-12-01T08:33:00.218Z,99938.31
2018-12-01T08:35:30.435Z,99932.55
2018-12-01T08:37:59.636Z,99929.22
2018-12-01T08:40:29.927Z,99932.15
2018-12-01T08:42:59.124Z,99933.14
2018-12-01T08:45:28.483Z,99924.54
2018-12-01T08:47:57.474Z,99927.41
2018-12-01T08:50:30.133Z,99919.44
2018-12-01T08:52:59.426Z,99933.02
2018-12-01T08:55:28.465Z,99922.58
2018-12-01T08:57:58.045Z,99924.72
2018-12-01T09:00:28.785Z,99925.20
2018-12-01T09:03:00.587Z,99922.98
2018-12-01T09:05:29.915Z,99921.04
2018-12-01T09:07:59.131Z,99920.42
2018-12-01T09:10:28.481Z,99921.14
2018-12-01T09:13:01.546Z,99920.83
2018-12-01T09:15:27.196Z,99920.59
2018-12-01T09:17:56.334Z,99915.62
2018-12-01T09:20:25.776Z,99925.12
2018-12-01T09:22:55.571Z,99928.15
2018-12-01T09:25:33.503Z,99928.39
2018-12-01T09:28:04.183Z,99924.30
2018-12-01T09:30:36.222Z,99929.44
2018-12-01T09:33:05.688Z,99928.31
2018-12-01T09:35:46.768Z,99937.58
2018-12-01T09:38:15.962Z,99946.57
2018-12-01T09:40:45.674Z,99964.52
2018-12-01T09:43:16.302Z,99971.91
2018-12-01T09:45:45.517Z,99974.02
2018-12-01T09:48:14.963Z,99969.63
2018-12-01T09:50:45.018Z,99963.87
2018-12-01T09:53:14.129Z,99971.16
2018-12-01T09:55:43.433Z,99975.75
2018-12-01T09:58:12.614Z,99981.44
2018-12-01T10:00:42.359Z,99988.56
2018-12-01T10:03:12.426Z,99993.50
2018-12-01T10:05:41.579Z,99985.09
2018-12-01T10:08:12.684Z,99994.63
2018-12-01T10:10:41.797Z,99993.19
2018-12-01T10:13:12.156Z,99992.58
2018-12-01T10:15:41.590Z,100006.92
2018-12-01T10:18:11.079Z,100008.45
2018-12-01T10:20:40.362Z,100016.83
2018-12-01T10:23:16.964Z,100024.97
2018-12-01T10:25:46.367Z,100025.48
2018-12-01T10:28:16.826Z,100028.20
2018-12-01T10:30:46.220Z,100025.72
2018-12-01T10:33:15.525Z,100028.68
2018-12-01T10:35:44.634Z,100024.86
2018-12-01T10:38:15.539Z,100027.52
2018-12-01T10:40:44.893Z,100030.48
2018-12-01T10:43:15.066Z,100030.95
2018-12-01T10:45:45.073Z,100034.19
2018-12-01T10:48:14.447Z,100037.39
2018-12-01T10:50:43.862Z,100042.77
2018-12-01T10:53:13.894Z,100036.97
2018-12-01T10:55:43.051Z,100034.75
2018-12-01T10:58:19.993Z,100031.41
2018-12-01T11:00:56.336Z,100034.09
2018-12-01T11:03:33.141Z,100046.91
2018-12-01T11:06:04.028Z,100042.59
2018-12-01T11:08:33.433Z,100034.13
2018-12-01T11:11:02.654Z,100036.11
2018-12-01T11:13:32.821Z,100027.42
2018-12-01T11:16:02.952Z,100020.92
2018-12-01T11:18:32.754Z,100025.31
2018-12-01T11:21:02.295Z,100042.27
2018-12-01T11:23:31.667Z,100042.84
2018-12-01T11:26:00.929Z,100037.70
2018-12-01T11:28:30.369Z,100037.12
2018-12-01T11:31:00.488Z,100036.81
2018-12-01T11:33:30.051Z,100041.98
2018-12-01T11:36:03.592Z,100031.86
2018-12-01T11:38:35.564Z,100033.23
2018-12-01T11:41:04.928Z,100039.26
2018-12-01T11:43:34.162Z,100031.86
2018-12-01T11:46:03.477Z,100028.35
2018-12-01T11:48:40.436Z,100022.05
2018-12-01T11:51:11.575Z,100018.19
2018-12-01T11:53:43.306Z,100014.91
2018-12-01T11:56:12.840Z,100020.56
2018-12-01T11:58:42.118Z,100024.08
2018-12-01T12:01:11.920Z,100026.53
2018-12-01T12:03:41.193Z,100031.17
2018-12-01T12:06:13.998Z,100020.56
2018-12-01T12:08:43.306Z,100020.49
2018-12-01T12:11:15.003Z,100018.27
2018-12-01T12:13:44.913Z,100015.23
2018-12-01T12:16:14.197Z,100009.50
2018-12-01T12:18:43.811Z,100014.38
2018-12-01T12:21:13.288Z,100013.59
2018-12-01T12:23:42.798Z,100016.91
2018-12-01T12:26:12.414Z,100012.03
2018-12-01T12:28:41.724Z,100012.31
2018-12-01T12:31:11.034Z,100021.35
2018-12-01T12:33:40.202Z,100017.84
2018-12-01T12:36:09.630Z,100010.16
2018-12-01T12:38:41.886Z,100007.98
2018-12-01T12:41:11.370Z,100002.53
2018-12-01T12:43:41.531Z,99997.58
2018-12-01T12:46:11.505Z,99995.95
2018-12-01T12:48:40.715Z,100001.17
2018-12-01T12:51:11.601Z,99993.84
2018-12-01T12:53:43.145Z,100000.42
2018-12-01T12:56:14.192Z,100007.83
2018-12-01T12:58:45.195Z,100004.59
2018-12-01T13:01:15.034Z,100002.17
2018-12-01T13:03:44.123Z,99993.48
2018-12-01T13:06:13.371Z,99995.16
2018-12-01T13:08:42.600Z,99999.25
2018-12-01T13:11:12.929Z,99997.38
2018-12-01T13:13:43.916Z,99997.38
2018-12-01T13:16:13.323Z,99990.33
2018-12-01T13:18:43.519Z,99992.78
2018-12-01T13:21:13.557Z,99984.05
2018-12-01T13:23:42.654Z,99984.33
2018-12-01T13:26:12.966Z,99978.80
2018-12-01T13:28:42.622Z,99981.80
2018-12-01T13:31:11.876Z,99985.31
2018-12-01T13:33:41.296Z,99986.36
2018-12-01T13:36:11.484Z,99992.63
2018-12-01T13:38:41.584Z,99988.54
2018-12-01T13:41:12.338Z,99985.50
2018-12-01T13:43:41.921Z,99997.23
2018-12-01T13:46:13.167Z,99991.23
2018-12-01T13:48:42.351Z,99995.31
2018-12-01T13:51:11.881Z,99987.68
2018-12-01T13:53:41.234Z,99996.41
2018-12-01T13:56:10.751Z,99989.86
2018-12-01T13:58:40.055Z,99982.23
2018-12-01T14:01:09.418Z,99974.59
2018-12-01T14:03:42.620Z,99970.81
2018-12-01T14:06:13.545Z,99975.17
2018-12-01T14:08:43.821Z,99966.73
2018-12-01T14:11:13.154Z,99967.54
2018-12-01T14:13:42.456Z,99971.88
2018-12-01T14:16:11.866Z,99964.27
2018-12-01T14:18:41.232Z,99960.72
2018-12-01T14:21:12.931Z,99959.91
2018-12-01T14:23:42.487Z,99967.54
2018-12-01T14:26:11.790Z,99967.54
2018-12-01T14:28:41.243Z,99970.50
2018-12-01T14:31:12.573Z,99975.68
2018-12-01T14:33:42.562Z,99976.23
2018-12-01T14:36:11.846Z,99990.41
2018-12-01T14:38:43.203Z,99994.81
2018-12-01T14:41:12.396Z,99986.94
2018-12-01T14:43:41.613Z,99988.85
2018-12-01T14:46:11.417Z,99990.52
2018-12-01T14:48:41.462Z,99987.53
2018-12-01T14:51:10.728Z,99989.20
2018-12-01T14:56:43.834Z,99989.27
2018-12-01T14:59:14.554Z,99983.00
2018-12-01T15:01:44.386Z,99988.45
2018-12-01T15:04:14.852Z,99985.73
2018-12-01T15:06:45.115Z,99984.67
2018-12-01T15:09:15.152Z,99980.58
2018-12-01T15:11:44.860Z,99977.05
2018-12-01T15:14:14.157Z,99983.62
2018-12-01T15:16:43.497Z,99988.77
2018-12-01T15:19:13.431Z,99991.49
2018-12-01T15:21:42.823Z,99983.05
2018-12-01T15:24:12.077Z,99979.77
2018-12-01T15:26:41.461Z,99984.67
2018-12-01T15:29:10.856Z,99983.86
2018-12-01T15:31:40.173Z,99975.17
2018-12-01T15:34:09.586Z,99980.89
2018-12-01T15:36:43.500Z,99975.44
2018-12-01T15:39:13.753Z,99972.71
2018-12-01T15:41:44.056Z,99965.63
2018-12-01T15:44:13.902Z,99968.36
2018-12-01T15:46:44.579Z,99959.94
2018-12-01T15:49:13.892Z,99952.30
2018-12-01T15:51:45.060Z,99941.71
2018-12-01T15:54:15.548Z,99942.52
2018-12-01T15:56:44.958Z,99938.98
2018-12-01T15:59:14.386Z,99944.16
2018-12-01T16:01:44.137Z,99953.98
2018-12-01T16:04:13.583Z,99952.34
2018-12-01T16:06:43.025Z,99953.70
2018-12-01T16:09:12.867Z,99961.34
2018-12-01T16:11:42.501Z,99961.10
2018-12-01T16:14:12.655Z,99957.80
2018-12-01T16:16:43.257Z,99947.78
2018-12-01T16:19:12.650Z,99947.78
2018-12-01T16:21:42.335Z,99953.23
2018-12-01T16:24:12.977Z,99961.65
2018-12-01T16:26:42.218Z,99970.88
2018-12-01T16:29:15.263Z,99980.70
2018-12-01T16:31:44.816Z,99967.06
2018-12-01T16:34:14.041Z,99963.52
2018-12-01T16:36:43.279Z,99955.58
2018-12-01T16:39:14.040Z,99958.81
2018-12-01T16:41:43.555Z,99969.17
2018-12-01T16:44:15.001Z,99972.41
2018-12-01T16:46:45.378Z,99963.17
2018-12-01T16:49:15.396Z,99948.45
2018-12-01T16:51:44.725Z,99953.67
2018-12-01T16:54:14.052Z,99954.48
2018-12-01T16:56:43.804Z,99959.36
2018-12-01T16:59:13.097Z,99961.54
2018-12-01T17:01:43.814Z,99957.72
2018-12-01T17:04:13.291Z,99939.73
2018-12-01T17:06:42.641Z,99937.27
2018-12-01T17:09:11.885Z,99941.09
2018-12-01T17:11:41.339Z,99932.67
2018-12-01T17:14:11.612Z,99934.58
2018-12-01T17:16:40.928Z,99945.48
2018-12-01T17:19:12.330Z,99925.35
2018-12-01T17:21:41.443Z,99931.63
2018-12-01T17:24:11.375Z,99937.62
2018-12-01T17:26:40.558Z,99942.80
2018-12-01T17:32:04.515Z,99934.16
2018-12-01T17:34:34.526Z,99931.42
2018-12-01T17:37:04.960Z,99929.80
2018-12-01T17:39:34.245Z,99934.16
2018-12-01T17:42:07.595Z,99936.61
2018-12-01T17:44:39.971Z,99923.84
2018-12-01T17:47:13.568Z,99921.92
2018-12-01T17:49:43.995Z,99917.59
2018-12-01T17:52:12.343Z,99924.41
2018-12-01T17:54:41.439Z,99923.59
2018-12-01T17:57:10.675Z,99911.33
2018-12-01T17:59:39.862Z,99907.48
2018-12-01T18:02:09.008Z,99904.75
2018-12-01T18:04:38.130Z,99911.84
2018-12-01T18:07:07.818Z,99916.47
2018-12-01T18:09:38.172Z,99916.78
2018-12-01T18:12:07.979Z,99907.48
2018-12-01T18:14:37.159Z,99904.75
2018-12-01T18:17:06.727Z,99906.97
2018-12-01T18:19:37.392Z,99898.25
2018-12-01T18:22:06.948Z,99889.52
2018-12-01T18:24:36.209Z,99876.95
2018-12-01T18:27:06.472Z,99866.86
2018-12-01T18:29:35.723Z,99852.65
2018-12-01T18:32:05.576Z,99851.87
2018-12-01T18:34:35.210Z,99855.95
2018-12-01T18:37:06.451Z,99850.23
2018-12-01T18:39:35.647Z,99857.05
2018-12-01T18:42:05.082Z,99860.35
2018-12-01T18:44:34.431Z,99851.09
2018-12-01T18:47:03.635Z,99853.81
2018-12-01T18:49:32.783Z,99862.58
2018-12-01T18:52:02.248Z,99866.39
2018-12-01T18:54:31.609Z,99883.30
2018-12-01T18:57:02.017Z,99886.29
2018-12-01T18:59:30.250Z,99896.65
2018-12-01T19:02:00.128Z,99888.47
2018-12-01T19:04:31.255Z,99888.40
2018-12-01T19:07:00.363Z,99891.39
2018-12-01T19:09:29.570Z,99898.44
2018-12-01T19:11:58.828Z,99903.34
2018-12-01T19:14:29.228Z,99897.59
2018-12-01T19:16:59.193Z,99899.19
2018-12-01T19:19:30.203Z,99895.36
2018-12-01T19:21:59.341Z,99880.92
2018-12-01T19:24:28.779Z,99869.46
2018-12-01T19:26:58.118Z,99847.39
2018-12-01T19:29:29.066Z,99837.11
2018-12-01T19:31:58.234Z,99828.42
2018-12-01T19:34:27.520Z,99839.09
2018-12-01T19:36:56.652Z,99826.32
2018-12-01T19:39:25.844Z,99821.97
2018-12-01T19:41:54.995Z,99825.00
2018-12-01T19:44:24.380Z,99814.69
2018-12-01T19:46:53.698Z,99804.88
2018-12-01T19:49:22.995Z,99804.88
2018-12-01T19:51:52.073Z,99798.69
2018-12-01T19:54:21.377Z,99784.79
2018-12-01T19:56:50.583Z,99777.48
2018-12-01T19:59:19.700Z,99778.60
2018-12-01T20:01:50.411Z,99764.48
2018-12-01T20:04:19.612Z,99756.30
2018-12-01T20:06:53.271Z,99759.02
2018-12-01T20:09:22.447Z,99758.79
2018-12-01T20:11:51.967Z,99747.89
2018-12-01T20:14:22.381Z,99738.09
2018-12-01T20:16:54.302Z,99730.77
2018-12-01T20:19:23.594Z,99721.23
2018-12-01T20:21:52.872Z,99716.91
2018-12-01T20:24:23.944Z,99716.91
2018-12-01T20:26:53.115Z,99690.52
2018-12-01T20:29:22.472Z,99696.52
2018-12-01T20:31:51.572Z,99702.55
2018-12-01T20:34:20.860Z,99695.23
2018-12-01T20:36:55.432Z,99697.15
2018-12-01T20:39:26.316Z,99702.36
2018-12-01T20:41:55.424Z,99681.66
2018-12-01T20:44:24.516Z,99689.02
2018-12-01T20:46:54.423Z,99687.42
2018-12-01T20:49:25.059Z,99678.75
2018-12-01T20:51:54.260Z,99688.55
2018-12-01T20:54:35.739Z,99677.39
2018-12-01T20:57:10.593Z,99673.30
2018-12-01T20:59:39.763Z,99659.69
2018-12-01T21:02:08.971Z,99659.45
2018-12-01T21:04:38.238Z,99658.87
2018-12-01T21:07:11.460Z,99658.32
2018-12-01T21:09:40.865Z,99662.67
2018-12-01T21:12:11.085Z,99655.86
2018-12-01T21:14:42.009Z,99651.95
2018-12-01T21:17:11.229Z,99643.16
2018-12-01T21:19:40.839Z,99646.06
2018-12-01T21:22:12.061Z,99648.42
2018-12-01T21:24:43.573Z,99644.52
2018-12-01T21:27:13.722Z,99646.30
2018-12-01T21:29:44.077Z,99649.52
2018-12-01T21:32:13.265Z,99653.23
2018-12-01T21:34:43.170Z,99652.11
2018-12-01T21:37:13.671Z,99659.42
2018-12-01T21:39:44.359Z,99654.16
2018-12-01T21:42:13.543Z,99655.70
2018-12-01T21:44:42.733Z,99646.91
2018-12-01T21:47:12.059Z,99642.92
2018-12-01T21:49:41.260Z,99649.31
2018-12-01T21:52:10.440Z,99645.89
2018-12-01T21:54:40.477Z,99638.38
2018-12-01T21:57:09.874Z,99641.46
2018-12-01T21:59:39.248Z,99637.39
2018-12-01T22:02:08.915Z,99642.70
2018-12-01T22:04:38.127Z,99628.91
2018-12-01T22:07:07.354Z,99638.09
2018-12-01T22:09:36.745Z,99635.30
2018-12-01T22:12:05.994Z,99633.94
2018-12-01T22:14:35.833Z,99631.20
2018-12-01T22:17:05.099Z,99634.16
2018-12-01T22:19:34.370Z,99624.29
2018-12-01T22:22:03.694Z,99635.98
2018-12-01T22:24:33.436Z,99641.45
2018-12-01T22:27:02.703Z,99637.59
2018-12-01T22:29:32.358Z,99640.55
2018-12-01T22:32:01.837Z,99646.27
2018-12-01T22:34:32.328Z,99632.62
2018-12-01T22:37:02.367Z,99628.53
2018-12-01T22:39:31.640Z,99637.75
2018-12-01T22:42:00.905Z,99626.03
2018-12-01T22:44:31.984Z,99632.84
2018-12-01T22:47:01.275Z,99633.98
2018-12-01T22:49:30.689Z,99628.27
2018-12-01T22:52:01.638Z,99638.31
2018-12-01T22:54:31.132Z,99640.72
2018-12-01T22:57:00.332Z,99639.84
2018-12-01T22:59:30.703Z,99639.61
2018-12-01T23:01:59.945Z,99637.98
2018-12-01T23:04:29.150Z,99635.02
2018-12-01T23:06:58.479Z,99627.06
2018-12-01T23:09:30.618Z,99632.06
2018-12-01T23:12:00.886Z,99634.80
2018-12-01T23:14:30.245Z,99639.12
2018-12-01T23:16:59.608Z,99642.40
2018-12-01T23:19:28.839Z,99650.36
2018-12-01T23:21:58.315Z,99647.37
2018-12-01T23:24:28.704Z,99642.17
2018-12-01T23:26:57.973Z,99636.94
2018-12-01T23:29:27.178Z,99642.66
2018-12-01T23:31:56.378Z,99640.80
2018-12-01T23:34:25.678Z,99642.72
2018-12-01T23:36:55.726Z,99644.90
2018-12-01T23:39:25.523Z,99646.81
2018-12-01T23:41:54.847Z,99648.44
2018-12-01T23:44:29.621Z,99653.91
2018-12-01T23:46:58.879Z,99647.37
2018-12-01T23:49:28.121Z,99654.19
2018-12-01T23:51:57.520Z,99650.09
2018-12-01T23:54:26.609Z,99647.62
2018-12-01T23:56:55.762Z,99644.09
2018-12-01T23:59:25.015Z,99646.58
